sensor_id;sensor_type;location;lat;lon;timestamp;P1;durP1;ratioP1;P2;durP2;ratioP2
5412;SDS011;2729;50.056;8.678;2023-01-30T00:00:24;15.20;;;7.60;;
5412;SDS011;2729;50.056;8.678;2023-01-30T00:02:50;13.73;;;7.33;;
5412;SDS011;2729;50.056;8.678;2023-01-30T00:05:16;12.00;;;7.10;;
5412;SDS011;2729;50.056;8.678;2023-01-30T00:07:42;14.13;;;7.87;;
5412;SDS011;2729;50.056;8.678;2023-01-30T00:10:08;9.60;;;7.27;;
5412;SDS011;2729;50.056;8.678;2023-01-30T00:12:35;9.47;;;6.50;;
5412;SDS011;2729;50.056;8.678;2023-01-30T00:15:01;15.37;;;8.57;;
5412;SDS011;2729;50.056;8.678;2023-01-30T00:17:27;12.73;;;7.00;;
5412;SDS011;2729;50.056;8.678;2023-01-30T00:19:53;15.17;;;7.63;;
5412;SDS011;2729;50.056;8.678;2023-01-30T00:22:18;16.93;;;8.70;;
5412;SDS011;2729;50.056;8.678;2023-01-30T00:24:44;11.50;;;7.00;;
5412;SDS011;2729;50.056;8.678;2023-01-30T00:27:10;12.27;;;7.30;;
5412;SDS011;2729;50.056;8.678;2023-01-30T00:29:36;18.43;;;7.47;;
5412;SDS011;2729;50.056;8.678;2023-01-30T00:32:02;15.27;;;7.17;;
5412;SDS011;2729;50.056;8.678;2023-01-30T00:34:29;16.40;;;8.23;;
5412;SDS011;2729;50.056;8.678;2023-01-30T00:36:54;11.87;;;6.90;;
5412;SDS011;2729;50.056;8.678;2023-01-30T00:39:20;15.67;;;8.00;;
5412;SDS011;2729;50.056;8.678;2023-01-30T00:41:47;11.27;;;7.30;;
5412;SDS011;2729;50.056;8.678;2023-01-30T00:44:31;12.50;;;7.07;;
5412;SDS011;2729;50.056;8.678;2023-01-30T00:47:16;13.90;;;7.10;;
5412;SDS011;2729;50.056;8.678;2023-01-30T00:49:42;13.60;;;7.20;;
5412;SDS011;2729;50.056;8.678;2023-01-30T00:52:08;12.33;;;6.90;;
5412;SDS011;2729;50.056;8.678;2023-01-30T00:54:34;13.20;;;6.60;;
5412;SDS011;2729;50.056;8.678;2023-01-30T00:57:00;13.67;;;7.50;;
5412;SDS011;2729;50.056;8.678;2023-01-30T00:59:26;14.97;;;6.90;;
5412;SDS011;2729;50.056;8.678;2023-01-30T01:01:52;12.97;;;7.70;;
5412;SDS011;2729;50.056;8.678;2023-01-30T01:04:18;13.00;;;6.47;;
5412;SDS011;2729;50.056;8.678;2023-01-30T01:06:44;12.93;;;7.37;;
5412;SDS011;2729;50.056;8.678;2023-01-30T01:09:11;9.63;;;6.20;;
5412;SDS011;2729;50.056;8.678;2023-01-30T01:11:39;11.37;;;6.40;;
5412;SDS011;2729;50.056;8.678;2023-01-30T01:14:05;13.60;;;6.67;;
5412;SDS011;2729;50.056;8.678;2023-01-30T01:16:32;12.20;;;6.97;;
5412;SDS011;2729;50.056;8.678;2023-01-30T01:18:59;14.53;;;6.50;;
5412;SDS011;2729;50.056;8.678;2023-01-30T01:21:25;14.10;;;7.83;;
5412;SDS011;2729;50.056;8.678;2023-01-30T01:23:53;11.90;;;6.70;;
5412;SDS011;2729;50.056;8.678;2023-01-30T01:26:20;12.07;;;6.37;;
5412;SDS011;2729;50.056;8.678;2023-01-30T01:28:47;12.30;;;6.80;;
5412;SDS011;2729;50.056;8.678;2023-01-30T01:31:13;12.33;;;6.17;;
5412;SDS011;2729;50.056;8.678;2023-01-30T01:33:40;12.90;;;7.00;;
5412;SDS011;2729;50.056;8.678;2023-01-30T01:36:07;14.13;;;6.63;;
5412;SDS011;2729;50.056;8.678;2023-01-30T01:38:33;15.03;;;7.27;;
5412;SDS011;2729;50.056;8.678;2023-01-30T01:40:59;11.60;;;6.80;;
5412;SDS011;2729;50.056;8.678;2023-01-30T01:43:31;13.57;;;6.73;;
5412;SDS011;2729;50.056;8.678;2023-01-30T01:46:01;13.00;;;7.10;;
5412;SDS011;2729;50.056;8.678;2023-01-30T01:48:50;14.63;;;7.57;;
5412;SDS011;2729;50.056;8.678;2023-01-30T01:51:21;10.83;;;6.40;;
5412;SDS011;2729;50.056;8.678;2023-01-30T01:53:58;17.17;;;6.67;;
5412;SDS011;2729;50.056;8.678;2023-01-30T01:56:45;14.10;;;7.40;;
5412;SDS011;2729;50.056;8.678;2023-01-30T01:59:19;16.67;;;7.17;;
5412;SDS011;2729;50.056;8.678;2023-01-30T02:01:51;11.33;;;6.93;;
5412;SDS011;2729;50.056;8.678;2023-01-30T02:04:22;11.47;;;6.10;;
5412;SDS011;2729;50.056;8.678;2023-01-30T02:07:10;11.43;;;7.30;;
5412;SDS011;2729;50.056;8.678;2023-01-30T02:09:36;14.00;;;6.93;;
5412;SDS011;2729;50.056;8.678;2023-01-30T02:12:02;10.30;;;6.57;;
5412;SDS011;2729;50.056;8.678;2023-01-30T02:14:31;12.17;;;6.70;;
5412;SDS011;2729;50.056;8.678;2023-01-30T02:16:58;15.23;;;7.90;;
5412;SDS011;2729;50.056;8.678;2023-01-30T02:19:30;9.80;;;5.60;;
5412;SDS011;2729;50.056;8.678;2023-01-30T02:22:16;10.17;;;6.03;;
5412;SDS011;2729;50.056;8.678;2023-01-30T02:30:32;12.33;;;6.47;;
5412;SDS011;2729;50.056;8.678;2023-01-30T02:33:24;10.40;;;6.40;;
5412;SDS011;2729;50.056;8.678;2023-01-30T02:36:19;16.20;;;7.10;;
5412;SDS011;2729;50.056;8.678;2023-01-30T02:39:25;17.70;;;6.93;;
5412;SDS011;2729;50.056;8.678;2023-01-30T02:42:07;12.13;;;6.70;;
5412;SDS011;2729;50.056;8.678;2023-01-30T02:44:49;11.53;;;6.70;;
5412;SDS011;2729;50.056;8.678;2023-01-30T02:47:26;10.47;;;6.47;;
5412;SDS011;2729;50.056;8.678;2023-01-30T02:49:57;12.87;;;7.03;;
5412;SDS011;2729;50.056;8.678;2023-01-30T02:52:30;15.27;;;8.17;;
5412;SDS011;2729;50.056;8.678;2023-01-30T02:54:57;13.37;;;7.70;;
5412;SDS011;2729;50.056;8.678;2023-01-30T02:57:23;15.43;;;6.13;;
5412;SDS011;2729;50.056;8.678;2023-01-30T02:59:55;12.47;;;6.60;;
5412;SDS011;2729;50.056;8.678;2023-01-30T03:02:26;9.07;;;5.87;;
5412;SDS011;2729;50.056;8.678;2023-01-30T03:07:49;14.13;;;6.70;;
5412;SDS011;2729;50.056;8.678;2023-01-30T03:10:36;12.20;;;7.03;;
5412;SDS011;2729;50.056;8.678;2023-01-30T03:15:39;13.50;;;6.33;;
5412;SDS011;2729;50.056;8.678;2023-01-30T03:18:10;17.33;;;7.17;;
5412;SDS011;2729;50.056;8.678;2023-01-30T03:20:37;10.70;;;6.10;;
5412;SDS011;2729;50.056;8.678;2023-01-30T03:23:04;11.53;;;6.10;;
5412;SDS011;2729;50.056;8.678;2023-01-30T03:25:31;11.97;;;6.53;;
5412;SDS011;2729;50.056;8.678;2023-01-30T03:27:59;12.53;;;6.67;;
5412;SDS011;2729;50.056;8.678;2023-01-30T03:30:27;10.73;;;6.77;;
5412;SDS011;2729;50.056;8.678;2023-01-30T03:33:01;10.93;;;6.93;;
5412;SDS011;2729;50.056;8.678;2023-01-30T03:35:28;12.60;;;7.40;;
5412;SDS011;2729;50.056;8.678;2023-01-30T03:37:54;16.90;;;6.60;;
5412;SDS011;2729;50.056;8.678;2023-01-30T03:40:21;13.87;;;7.70;;
5412;SDS011;2729;50.056;8.678;2023-01-30T03:42:47;12.73;;;6.47;;
5412;SDS011;2729;50.056;8.678;2023-01-30T03:45:13;11.50;;;6.10;;
5412;SDS011;2729;50.056;8.678;2023-01-30T03:47:39;11.33;;;5.50;;
5412;SDS011;2729;50.056;8.678;2023-01-30T03:50:06;13.03;;;6.10;;
5412;SDS011;2729;50.056;8.678;2023-01-30T03:52:33;8.40;;;6.00;;
5412;SDS011;2729;50.056;8.678;2023-01-30T03:55:00;10.53;;;6.63;;
5412;SDS011;2729;50.056;8.678;2023-01-30T03:57:26;12.50;;;7.03;;
5412;SDS011;2729;50.056;8.678;2023-01-30T03:59:52;11.67;;;6.67;;
5412;SDS011;2729;50.056;8.678;2023-01-30T04:02:18;11.37;;;6.53;;
5412;SDS011;2729;50.056;8.678;2023-01-30T04:04:48;10.77;;;6.60;;
5412;SDS011;2729;50.056;8.678;2023-01-30T04:07:14;11.20;;;6.53;;
5412;SDS011;2729;50.056;8.678;2023-01-30T04:09:41;12.77;;;7.20;;
5412;SDS011;2729;50.056;8.678;2023-01-30T04:12:07;11.43;;;6.33;;
5412;SDS011;2729;50.056;8.678;2023-01-30T04:14:38;10.43;;;6.20;;
5412;SDS011;2729;50.056;8.678;2023-01-30T04:17:22;12.77;;;6.80;;
5412;SDS011;2729;50.056;8.678;2023-01-30T04:20:20;14.87;;;6.70;;
5412;SDS011;2729;50.056;8.678;2023-01-30T04:22:51;15.53;;;7.17;;
5412;SDS011;2729;50.056;8.678;2023-01-30T04:25:17;16.10;;;8.60;;
5412;SDS011;2729;50.056;8.678;2023-01-30T04:27:42;10.63;;;6.37;;
5412;SDS011;2729;50.056;8.678;2023-01-30T04:30:14;12.03;;;6.83;;
5412;SDS011;2729;50.056;8.678;2023-01-30T04:32:41;15.00;;;7.40;;
5412;SDS011;2729;50.056;8.678;2023-01-30T04:35:08;14.77;;;7.07;;
5412;SDS011;2729;50.056;8.678;2023-01-30T04:37:35;16.67;;;7.83;;
5412;SDS011;2729;50.056;8.678;2023-01-30T04:40:00;12.27;;;7.10;;
5412;SDS011;2729;50.056;8.678;2023-01-30T04:42:26;14.17;;;7.50;;
5412;SDS011;2729;50.056;8.678;2023-01-30T04:45:21;16.47;;;7.83;;
5412;SDS011;2729;50.056;8.678;2023-01-30T04:47:49;20.27;;;7.80;;
5412;SDS011;2729;50.056;8.678;2023-01-30T04:50:15;14.30;;;6.90;;
5412;SDS011;2729;50.056;8.678;2023-01-30T04:52:41;13.80;;;7.37;;
5412;SDS011;2729;50.056;8.678;2023-01-30T04:55:07;16.60;;;7.73;;
5412;SDS011;2729;50.056;8.678;2023-01-30T04:57:34;13.90;;;7.20;;
5412;SDS011;2729;50.056;8.678;2023-01-30T05:00:00;14.47;;;7.33;;
5412;SDS011;2729;50.056;8.678;2023-01-30T05:02:27;13.20;;;6.90;;
5412;SDS011;2729;50.056;8.678;2023-01-30T05:04:52;15.50;;;7.17;;
5412;SDS011;2729;50.056;8.678;2023-01-30T05:07:18;15.60;;;8.53;;
5412;SDS011;2729;50.056;8.678;2023-01-30T05:09:44;17.47;;;8.60;;
5412;SDS011;2729;50.056;8.678;2023-01-30T05:12:10;14.60;;;8.50;;
5412;SDS011;2729;50.056;8.678;2023-01-30T05:14:36;13.67;;;7.93;;
5412;SDS011;2729;50.056;8.678;2023-01-30T05:17:05;15.00;;;7.60;;
5412;SDS011;2729;50.056;8.678;2023-01-30T05:19:31;14.70;;;7.07;;
5412;SDS011;2729;50.056;8.678;2023-01-30T05:21:57;11.37;;;6.13;;
5412;SDS011;2729;50.056;8.678;2023-01-30T05:24:23;13.83;;;7.33;;
5412;SDS011;2729;50.056;8.678;2023-01-30T05:26:49;14.17;;;7.70;;
5412;SDS011;2729;50.056;8.678;2023-01-30T05:29:15;16.83;;;7.57;;
5412;SDS011;2729;50.056;8.678;2023-01-30T05:31:41;14.27;;;7.03;;
5412;SDS011;2729;50.056;8.678;2023-01-30T05:34:09;17.10;;;7.23;;
5412;SDS011;2729;50.056;8.678;2023-01-30T05:36:36;14.00;;;6.37;;
5412;SDS011;2729;50.056;8.678;2023-01-30T05:39:03;12.43;;;6.90;;
5412;SDS011;2729;50.056;8.678;2023-01-30T05:41:29;10.67;;;6.07;;
5412;SDS011;2729;50.056;8.678;2023-01-30T05:43:55;14.13;;;7.77;;
5412;SDS011;2729;50.056;8.678;2023-01-30T05:46:23;16.07;;;7.77;;
5412;SDS011;2729;50.056;8.678;2023-01-30T05:48:49;13.53;;;7.23;;
5412;SDS011;2729;50.056;8.678;2023-01-30T05:51:16;13.00;;;7.30;;
5412;SDS011;2729;50.056;8.678;2023-01-30T05:53:42;13.80;;;7.50;;
5412;SDS011;2729;50.056;8.678;2023-01-30T05:56:08;13.40;;;7.30;;
5412;SDS011;2729;50.056;8.678;2023-01-30T05:58:34;12.00;;;5.97;;
5412;SDS011;2729;50.056;8.678;2023-01-30T06:01:01;14.93;;;7.33;;
5412;SDS011;2729;50.056;8.678;2023-01-30T06:03:30;11.80;;;6.63;;
5412;SDS011;2729;50.056;8.678;2023-01-30T06:05:57;17.10;;;6.87;;
5412;SDS011;2729;50.056;8.678;2023-01-30T06:08:23;14.70;;;7.37;;
5412;SDS011;2729;50.056;8.678;2023-01-30T06:10:49;12.77;;;6.90;;
5412;SDS011;2729;50.056;8.678;2023-01-30T06:13:15;15.60;;;7.67;;
5412;SDS011;2729;50.056;8.678;2023-01-30T06:15:41;14.63;;;7.87;;
5412;SDS011;2729;50.056;8.678;2023-01-30T06:18:07;15.10;;;7.13;;
5412;SDS011;2729;50.056;8.678;2023-01-30T06:20:33;15.30;;;7.47;;
5412;SDS011;2729;50.056;8.678;2023-01-30T06:22:59;13.80;;;6.97;;
5412;SDS011;2729;50.056;8.678;2023-01-30T06:25:25;14.73;;;7.10;;
5412;SDS011;2729;50.056;8.678;2023-01-30T06:27:51;10.50;;;7.17;;
5412;SDS011;2729;50.056;8.678;2023-01-30T06:30:17;13.03;;;7.40;;
5412;SDS011;2729;50.056;8.678;2023-01-30T06:32:43;11.30;;;6.57;;
5412;SDS011;2729;50.056;8.678;2023-01-30T06:35:09;11.20;;;6.70;;
5412;SDS011;2729;50.056;8.678;2023-01-30T06:37:35;13.23;;;6.97;;
5412;SDS011;2729;50.056;8.678;2023-01-30T06:40:01;19.70;;;8.07;;
5412;SDS011;2729;50.056;8.678;2023-01-30T06:42:27;11.57;;;6.73;;
5412;SDS011;2729;50.056;8.678;2023-01-30T06:44:53;17.33;;;7.07;;
5412;SDS011;2729;50.056;8.678;2023-01-30T06:47:20;9.00;;;6.30;;
5412;SDS011;2729;50.056;8.678;2023-01-30T06:49:46;11.97;;;6.33;;
5412;SDS011;2729;50.056;8.678;2023-01-30T06:52:13;18.27;;;6.77;;
5412;SDS011;2729;50.056;8.678;2023-01-30T06:54:39;13.23;;;6.50;;
5412;SDS011;2729;50.056;8.678;2023-01-30T06:57:05;11.07;;;5.17;;
5412;SDS011;2729;50.056;8.678;2023-01-30T06:59:31;10.67;;;5.73;;
5412;SDS011;2729;50.056;8.678;2023-01-30T07:01:57;9.60;;;5.93;;
5412;SDS011;2729;50.056;8.678;2023-01-30T07:04:23;10.73;;;6.20;;
5412;SDS011;2729;50.056;8.678;2023-01-30T07:06:49;12.43;;;6.83;;
5412;SDS011;2729;50.056;8.678;2023-01-30T07:09:15;12.10;;;5.77;;
5412;SDS011;2729;50.056;8.678;2023-01-30T07:11:41;7.63;;;5.60;;
5412;SDS011;2729;50.056;8.678;2023-01-30T07:14:08;11.00;;;5.53;;
5412;SDS011;2729;50.056;8.678;2023-01-30T07:16:34;8.27;;;5.33;;
5412;SDS011;2729;50.056;8.678;2023-01-30T07:19:00;12.30;;;5.77;;
5412;SDS011;2729;50.056;8.678;2023-01-30T07:21:26;10.80;;;6.30;;
5412;SDS011;2729;50.056;8.678;2023-01-30T07:23:52;12.93;;;6.20;;
5412;SDS011;2729;50.056;8.678;2023-01-30T07:26:18;9.23;;;5.97;;
5412;SDS011;2729;50.056;8.678;2023-01-30T07:28:44;9.30;;;5.93;;
5412;SDS011;2729;50.056;8.678;2023-01-30T07:31:10;12.20;;;6.07;;
5412;SDS011;2729;50.056;8.678;2023-01-30T07:33:36;7.77;;;5.07;;
5412;SDS011;2729;50.056;8.678;2023-01-30T07:36:03;8.17;;;5.00;;
5412;SDS011;2729;50.056;8.678;2023-01-30T07:38:29;9.90;;;6.03;;
5412;SDS011;2729;50.056;8.678;2023-01-30T07:40:58;8.57;;;5.70;;
5412;SDS011;2729;50.056;8.678;2023-01-30T07:43:24;10.57;;;6.10;;
5412;SDS011;2729;50.056;8.678;2023-01-30T07:45:50;12.60;;;5.70;;
5412;SDS011;2729;50.056;8.678;2023-01-30T07:48:17;10.33;;;6.27;;
5412;SDS011;2729;50.056;8.678;2023-01-30T07:50:44;6.80;;;4.83;;
5412;SDS011;2729;50.056;8.678;2023-01-30T07:53:11;8.27;;;4.97;;
5412;SDS011;2729;50.056;8.678;2023-01-30T07:55:38;9.10;;;5.93;;
5412;SDS011;2729;50.056;8.678;2023-01-30T07:58:04;11.10;;;5.57;;
5412;SDS011;2729;50.056;8.678;2023-01-30T08:00:30;10.57;;;5.90;;
5412;SDS011;2729;50.056;8.678;2023-01-30T08:02:57;7.00;;;4.90;;
5412;SDS011;2729;50.056;8.678;2023-01-30T08:05:23;9.00;;;5.63;;
5412;SDS011;2729;50.056;8.678;2023-01-30T08:07:49;11.47;;;5.93;;
5412;SDS011;2729;50.056;8.678;2023-01-30T08:10:15;7.23;;;5.20;;
5412;SDS011;2729;50.056;8.678;2023-01-30T08:12:41;9.50;;;5.57;;
5412;SDS011;2729;50.056;8.678;2023-01-30T08:15:08;9.50;;;5.40;;
5412;SDS011;2729;50.056;8.678;2023-01-30T08:17:36;6.97;;;4.90;;
5412;SDS011;2729;50.056;8.678;2023-01-30T08:20:02;11.43;;;6.13;;
5412;SDS011;2729;50.056;8.678;2023-01-30T08:22:29;10.53;;;5.63;;
5412;SDS011;2729;50.056;8.678;2023-01-30T08:24:55;12.73;;;7.00;;
5412;SDS011;2729;50.056;8.678;2023-01-30T08:27:21;9.63;;;5.80;;
5412;SDS011;2729;50.056;8.678;2023-01-30T08:29:48;10.57;;;5.30;;
5412;SDS011;2729;50.056;8.678;2023-01-30T08:32:14;9.43;;;5.63;;
5412;SDS011;2729;50.056;8.678;2023-01-30T08:34:40;7.70;;;5.27;;
5412;SDS011;2729;50.056;8.678;2023-01-30T08:37:05;8.40;;;5.00;;
5412;SDS011;2729;50.056;8.678;2023-01-30T08:39:31;9.63;;;5.57;;
5412;SDS011;2729;50.056;8.678;2023-01-30T08:41:57;9.63;;;5.70;;
5412;SDS011;2729;50.056;8.678;2023-01-30T08:44:23;7.83;;;5.50;;
5412;SDS011;2729;50.056;8.678;2023-01-30T08:46:49;8.23;;;5.10;;
5412;SDS011;2729;50.056;8.678;2023-01-30T08:49:15;7.70;;;4.67;;
5412;SDS011;2729;50.056;8.678;2023-01-30T08:51:41;9.70;;;5.00;;
5412;SDS011;2729;50.056;8.678;2023-01-30T08:54:07;9.03;;;5.43;;
5412;SDS011;2729;50.056;8.678;2023-01-30T08:56:33;7.07;;;4.70;;
5412;SDS011;2729;50.056;8.678;2023-01-30T08:58:59;7.10;;;4.63;;
5412;SDS011;2729;50.056;8.678;2023-01-30T09:01:25;8.20;;;4.80;;
5412;SDS011;2729;50.056;8.678;2023-01-30T09:03:51;7.27;;;4.53;;
5412;SDS011;2729;50.056;8.678;2023-01-30T09:06:17;8.43;;;4.63;;
5412;SDS011;2729;50.056;8.678;2023-01-30T09:08:43;6.67;;;4.40;;
5412;SDS011;2729;50.056;8.678;2023-01-30T09:11:09;7.20;;;4.10;;
5412;SDS011;2729;50.056;8.678;2023-01-30T09:13:37;8.33;;;4.70;;
5412;SDS011;2729;50.056;8.678;2023-01-30T09:16:08;6.40;;;4.30;;
5412;SDS011;2729;50.056;8.678;2023-01-30T09:18:41;8.50;;;5.67;;
5412;SDS011;2729;50.056;8.678;2023-01-30T09:21:09;6.60;;;4.40;;
5412;SDS011;2729;50.056;8.678;2023-01-30T09:23:36;6.30;;;4.43;;
5412;SDS011;2729;50.056;8.678;2023-01-30T09:26:02;4.57;;;4.07;;
5412;SDS011;2729;50.056;8.678;2023-01-30T09:28:29;7.57;;;5.03;;
5412;SDS011;2729;50.056;8.678;2023-01-30T09:30:56;6.40;;;4.77;;
5412;SDS011;2729;50.056;8.678;2023-01-30T09:33:22;5.50;;;3.60;;
5412;SDS011;2729;50.056;8.678;2023-01-30T09:35:50;6.93;;;4.20;;
5412;SDS011;2729;50.056;8.678;2023-01-30T09:38:16;5.00;;;4.20;;
5412;SDS011;2729;50.056;8.678;2023-01-30T09:46:53;5.17;;;3.80;;
5412;SDS011;2729;50.056;8.678;2023-01-30T09:51:57;5.40;;;3.50;;
5412;SDS011;2729;50.056;8.678;2023-01-30T09:54:39;6.83;;;3.97;;
5412;SDS011;2729;50.056;8.678;2023-01-30T09:57:16;7.20;;;3.60;;
5412;SDS011;2729;50.056;8.678;2023-01-30T09:59:55;4.63;;;3.43;;
5412;SDS011;2729;50.056;8.678;2023-01-30T10:05:14;3.53;;;2.97;;
5412;SDS011;2729;50.056;8.678;2023-01-30T10:10:28;4.10;;;3.27;;
5412;SDS011;2729;50.056;8.678;2023-01-30T10:24:28;6.43;;;2.00;;
5412;SDS011;2729;50.056;8.678;2023-01-30T10:27:06;2.00;;;1.83;;
5412;SDS011;2729;50.056;8.678;2023-01-30T10:29:38;2.20;;;2.00;;
5412;SDS011;2729;50.056;8.678;2023-01-30T10:32:12;2.00;;;1.83;;
5412;SDS011;2729;50.056;8.678;2023-01-30T10:34:48;2.00;;;1.90;;
5412;SDS011;2729;50.056;8.678;2023-01-30T10:39:58;1.70;;;1.60;;
5412;SDS011;2729;50.056;8.678;2023-01-30T10:42:57;1.70;;;1.50;;
5412;SDS011;2729;50.056;8.678;2023-01-30T10:45:31;1.87;;;1.43;;
5412;SDS011;2729;50.056;8.678;2023-01-30T10:48:08;1.30;;;1.20;;
5412;SDS011;2729;50.056;8.678;2023-01-30T10:50:58;1.70;;;1.60;;
5412;SDS011;2729;50.056;8.678;2023-01-30T10:56:11;1.10;;;1.10;;
5412;SDS011;2729;50.056;8.678;2023-01-30T10:58:47;1.40;;;1.40;;
5412;SDS011;2729;50.056;8.678;2023-01-30T11:01:30;1.30;;;1.20;;
5412;SDS011;2729;50.056;8.678;2023-01-30T11:04:02;1.13;;;1.13;;
5412;SDS011;2729;50.056;8.678;2023-01-30T11:06:38;1.30;;;1.20;;
5412;SDS011;2729;50.056;8.678;2023-01-30T11:09:05;1.00;;;1.00;;
5412;SDS011;2729;50.056;8.678;2023-01-30T11:11:49;1.40;;;1.30;;
5412;SDS011;2729;50.056;8.678;2023-01-30T11:14:17;1.30;;;1.30;;
5412;SDS011;2729;50.056;8.678;2023-01-30T11:16:51;1.27;;;1.27;;
5412;SDS011;2729;50.056;8.678;2023-01-30T11:19:21;1.40;;;1.30;;
5412;SDS011;2729;50.056;8.678;2023-01-30T11:21:52;1.30;;;1.30;;
5412;SDS011;2729;50.056;8.678;2023-01-30T11:24:28;1.80;;;1.10;;
5412;SDS011;2729;50.056;8.678;2023-01-30T11:27:09;1.00;;;1.00;;
5412;SDS011;2729;50.056;8.678;2023-01-30T11:29:46;1.00;;;1.00;;
5412;SDS011;2729;50.056;8.678;2023-01-30T11:32:23;1.40;;;1.40;;
5412;SDS011;2729;50.056;8.678;2023-01-30T11:37:33;1.00;;;1.00;;
5412;SDS011;2729;50.056;8.678;2023-01-30T11:40:23;1.50;;;1.03;;
5412;SDS011;2729;50.056;8.678;2023-01-30T11:43:00;2.30;;;1.50;;
5412;SDS011;2729;50.056;8.678;2023-01-30T11:45:29;1.30;;;1.30;;
5412;SDS011;2729;50.056;8.678;2023-01-30T11:48:00;1.00;;;1.00;;
5412;SDS011;2729;50.056;8.678;2023-01-30T11:50:31;1.27;;;1.20;;
5412;SDS011;2729;50.056;8.678;2023-01-30T11:53:02;1.40;;;1.30;;
5412;SDS011;2729;50.056;8.678;2023-01-30T11:55:32;1.33;;;1.30;;
5412;SDS011;2729;50.056;8.678;2023-01-30T11:58:02;1.93;;;1.77;;
5412;SDS011;2729;50.056;8.678;2023-01-30T12:00:40;1.30;;;1.30;;
5412;SDS011;2729;50.056;8.678;2023-01-30T12:03:11;1.40;;;1.30;;
5412;SDS011;2729;50.056;8.678;2023-01-30T12:05:43;1.10;;;1.10;;
5412;SDS011;2729;50.056;8.678;2023-01-30T12:10:40;1.13;;;1.13;;
5412;SDS011;2729;50.056;8.678;2023-01-30T12:19:00;1.50;;;1.30;;
5412;SDS011;2729;50.056;8.678;2023-01-30T12:21:38;1.47;;;1.30;;
5412;SDS011;2729;50.056;8.678;2023-01-30T12:24:14;1.07;;;1.07;;
5412;SDS011;2729;50.056;8.678;2023-01-30T12:26:57;1.10;;;1.10;;
5412;SDS011;2729;50.056;8.678;2023-01-30T12:29:50;0.93;;;0.93;;
5412;SDS011;2729;50.056;8.678;2023-01-30T12:32:26;1.47;;;1.40;;
5412;SDS011;2729;50.056;8.678;2023-01-30T12:34:53;1.23;;;1.23;;
5412;SDS011;2729;50.056;8.678;2023-01-30T12:40:40;1.03;;;1.03;;
5412;SDS011;2729;50.056;8.678;2023-01-30T12:43:21;1.60;;;1.43;;
5412;SDS011;2729;50.056;8.678;2023-01-30T12:48:54;1.17;;;1.17;;
5412;SDS011;2729;50.056;8.678;2023-01-30T12:51:43;1.90;;;1.30;;
5412;SDS011;2729;50.056;8.678;2023-01-30T12:54:41;1.20;;;1.20;;
5412;SDS011;2729;50.056;8.678;2023-01-30T12:57:21;1.50;;;1.40;;
5412;SDS011;2729;50.056;8.678;2023-01-30T13:00:19;2.50;;;1.27;;
5412;SDS011;2729;50.056;8.678;2023-01-30T13:03:18;1.23;;;1.13;;
5412;SDS011;2729;50.056;8.678;2023-01-30T13:06:00;1.03;;;1.03;;
5412;SDS011;2729;50.056;8.678;2023-01-30T13:12:03;1.30;;;1.20;;
5412;SDS011;2729;50.056;8.678;2023-01-30T13:14:33;1.20;;;1.20;;
5412;SDS011;2729;50.056;8.678;2023-01-30T13:22:51;1.67;;;1.57;;
5412;SDS011;2729;50.056;8.678;2023-01-30T13:28:33;4.43;;;1.13;;
5412;SDS011;2729;50.056;8.678;2023-01-30T13:31:08;1.57;;;1.47;;
5412;SDS011;2729;50.056;8.678;2023-01-30T13:33:37;1.20;;;1.20;;
5412;SDS011;2729;50.056;8.678;2023-01-30T13:36:10;1.00;;;1.00;;
5412;SDS011;2729;50.056;8.678;2023-01-30T13:38:48;8.00;;;1.63;;
5412;SDS011;2729;50.056;8.678;2023-01-30T13:41:21;1.10;;;1.10;;
5412;SDS011;2729;50.056;8.678;2023-01-30T13:43:52;1.00;;;1.00;;
5412;SDS011;2729;50.056;8.678;2023-01-30T13:46:23;1.20;;;1.10;;
5412;SDS011;2729;50.056;8.678;2023-01-30T13:49:07;4.73;;;1.00;;
5412;SDS011;2729;50.056;8.678;2023-01-30T13:51:52;1.10;;;1.10;;
5412;SDS011;2729;50.056;8.678;2023-01-30T13:57:18;1.17;;;1.07;;
5412;SDS011;2729;50.056;8.678;2023-01-30T14:00:07;1.13;;;1.10;;
5412;SDS011;2729;50.056;8.678;2023-01-30T14:08:20;1.90;;;1.27;;
5412;SDS011;2729;50.056;8.678;2023-01-30T14:10:50;1.23;;;1.13;;
5412;SDS011;2729;50.056;8.678;2023-01-30T14:13:17;2.43;;;1.13;;
5412;SDS011;2729;50.056;8.678;2023-01-30T14:15:53;1.80;;;1.27;;
5412;SDS011;2729;50.056;8.678;2023-01-30T14:18:29;2.60;;;1.33;;
5412;SDS011;2729;50.056;8.678;2023-01-30T14:21:19;2.63;;;1.27;;
5412;SDS011;2729;50.056;8.678;2023-01-30T14:23:53;1.10;;;1.10;;
5412;SDS011;2729;50.056;8.678;2023-01-30T14:29:49;1.27;;;1.17;;
5412;SDS011;2729;50.056;8.678;2023-01-30T14:34:46;1.10;;;0.97;;
5412;SDS011;2729;50.056;8.678;2023-01-30T14:38:03;2.80;;;1.30;;
5412;SDS011;2729;50.056;8.678;2023-01-30T14:40:37;1.50;;;1.00;;
5412;SDS011;2729;50.056;8.678;2023-01-30T14:51:19;1.83;;;1.30;;
5412;SDS011;2729;50.056;8.678;2023-01-30T14:53:53;1.17;;;1.17;;
5412;SDS011;2729;50.056;8.678;2023-01-30T15:08:01;1.13;;;1.13;;
5412;SDS011;2729;50.056;8.678;2023-01-30T15:10:40;1.30;;;1.20;;
5412;SDS011;2729;50.056;8.678;2023-01-30T15:22:22;3.03;;;1.43;;
5412;SDS011;2729;50.056;8.678;2023-01-30T15:25:11;1.80;;;1.60;;
5412;SDS011;2729;50.056;8.678;2023-01-30T15:27:52;2.50;;;1.07;;
5412;SDS011;2729;50.056;8.678;2023-01-30T15:30:26;1.37;;;1.37;;
5412;SDS011;2729;50.056;8.678;2023-01-30T15:33:18;2.53;;;1.27;;
5412;SDS011;2729;50.056;8.678;2023-01-30T15:35:46;3.97;;;1.20;;
5412;SDS011;2729;50.056;8.678;2023-01-30T15:38:26;1.50;;;1.40;;
5412;SDS011;2729;50.056;8.678;2023-01-30T15:40:55;1.57;;;1.47;;
5412;SDS011;2729;50.056;8.678;2023-01-30T15:46:20;2.83;;;1.40;;
5412;SDS011;2729;50.056;8.678;2023-01-30T15:49:10;1.50;;;1.20;;
5412;SDS011;2729;50.056;8.678;2023-01-30T15:51:50;2.83;;;1.63;;
5412;SDS011;2729;50.056;8.678;2023-01-30T15:54:18;2.87;;;1.30;;
5412;SDS011;2729;50.056;8.678;2023-01-30T15:56:48;5.90;;;1.50;;
5412;SDS011;2729;50.056;8.678;2023-01-30T15:59:25;4.90;;;1.73;;
5412;SDS011;2729;50.056;8.678;2023-01-30T16:01:58;9.17;;;1.50;;
5412;SDS011;2729;50.056;8.678;2023-01-30T16:04:26;1.43;;;1.30;;
5412;SDS011;2729;50.056;8.678;2023-01-30T16:06:57;5.10;;;1.40;;
5412;SDS011;2729;50.056;8.678;2023-01-30T16:09:24;6.10;;;1.87;;
5412;SDS011;2729;50.056;8.678;2023-01-30T16:11:50;3.23;;;1.30;;
5412;SDS011;2729;50.056;8.678;2023-01-30T16:14:17;3.17;;;1.50;;
5412;SDS011;2729;50.056;8.678;2023-01-30T16:16:47;4.10;;;1.57;;
5412;SDS011;2729;50.056;8.678;2023-01-30T16:19:22;5.70;;;1.43;;
5412;SDS011;2729;50.056;8.678;2023-01-30T16:21:53;4.73;;;1.30;;
5412;SDS011;2729;50.056;8.678;2023-01-30T16:24:26;1.67;;;1.47;;
5412;SDS011;2729;50.056;8.678;2023-01-30T16:26:54;1.73;;;1.50;;
5412;SDS011;2729;50.056;8.678;2023-01-30T16:29:24;9.07;;;1.90;;
5412;SDS011;2729;50.056;8.678;2023-01-30T16:31:52;5.50;;;1.83;;
5412;SDS011;2729;50.056;8.678;2023-01-30T16:34:27;5.03;;;1.80;;
5412;SDS011;2729;50.056;8.678;2023-01-30T16:37:00;4.57;;;1.40;;
5412;SDS011;2729;50.056;8.678;2023-01-30T16:39:30;9.83;;;1.87;;
5412;SDS011;2729;50.056;8.678;2023-01-30T16:42:01;5.10;;;1.80;;
5412;SDS011;2729;50.056;8.678;2023-01-30T16:44:44;3.47;;;1.70;;
5412;SDS011;2729;50.056;8.678;2023-01-30T16:47:20;7.17;;;1.90;;
5412;SDS011;2729;50.056;8.678;2023-01-30T16:49:49;3.70;;;1.60;;
5412;SDS011;2729;50.056;8.678;2023-01-30T16:52:21;3.30;;;1.20;;
5412;SDS011;2729;50.056;8.678;2023-01-30T16:54:51;4.37;;;1.80;;
5412;SDS011;2729;50.056;8.678;2023-01-30T17:00:06;4.40;;;1.43;;
5412;SDS011;2729;50.056;8.678;2023-01-30T17:02:48;3.67;;;1.50;;
5412;SDS011;2729;50.056;8.678;2023-01-30T17:05:17;1.77;;;1.67;;
5412;SDS011;2729;50.056;8.678;2023-01-30T17:07:46;2.77;;;1.30;;
5412;SDS011;2729;50.056;8.678;2023-01-30T17:12:54;4.17;;;1.37;;
5412;SDS011;2729;50.056;8.678;2023-01-30T17:17:47;3.13;;;1.37;;
5412;SDS011;2729;50.056;8.678;2023-01-30T17:20:16;5.70;;;1.67;;
5412;SDS011;2729;50.056;8.678;2023-01-30T17:22:42;5.63;;;1.43;;
5412;SDS011;2729;50.056;8.678;2023-01-30T17:25:30;2.70;;;1.30;;
5412;SDS011;2729;50.056;8.678;2023-01-30T17:28:00;1.37;;;1.27;;
5412;SDS011;2729;50.056;8.678;2023-01-30T17:30:26;3.43;;;2.00;;
5412;SDS011;2729;50.056;8.678;2023-01-30T17:32:53;3.53;;;1.60;;
5412;SDS011;2729;50.056;8.678;2023-01-30T17:35:19;2.00;;;1.40;;